LSZAEDNY

Guest
Details From LSZA - Lugano
To EDNY - Friedrichshafen
Flight Number -
Tags generated
Created
Modified
Stats Distance 103 nm / 191 km
Max Altitude 8,100 ft / 2,469 m
Waypoints 3
Social Downloads 1
Likes 0
Share VATSIM

Download

Looking for another format? Having issues loading an existing format? Contact us
Advertisement - Login to hide

Notes

Basic altitude profile: - Ascent Rate: 2500ft/min - Ascent Speed: 250kts - Cruise Altitude: 35000ft - Cruise Speed: 420kts - Descent Rate: 1500ft/min - Descent Speed: 250kts

Route

LSZA ARGAX EDNY

ID Type Via Altitude Latitude Longitude Leg Dist Tot Dist Heading (true) Name
O LSZA APT - 0 ft / 0 m 46.00427˚ 8.91058˚ - 0 nm - Lugano
ARGAX FIX - 8,100 ft / 2,469 m 47.05000˚ 9.29806˚ 64 nm 64 nm 14° / 14° -
O EDNY APT - 0 ft / 0 m 47.67089˚ 9.50818˚ 38 nm 103 nm 13° / 13° Friedrichshafen

Altitude Profile

Advertisement - Login to hide

LSZA

Details ICAO LSZA (LUG)
Name Lugano
Region Switzerland
Timezone Europe/Zurich (UTC+1.0)
Stats Elevation 915 ft / 279 m (AMSL)
Location 46.004275° 8.910579°
Runways 1
Magnetic Variation 2.423° E

METAR

LSZA 111720Z VRB03KT 1500 SN FEW005 SCT008 BKN012 00/00 Q0996 NOSIG

Decode

TAF

Not found

Departure Runways

ID Width Length Bearing (true) Bearing (mag) Surface Threshold Offset Overrun Length
01 98 ft / 30 m 4,430 ft / 1,350 m 18.79° 16.37° Asphalt 361 ft / 110 m 0 ft / 0 m
19 98 ft / 30 m 4,430 ft / 1,350 m 198.79° 196.37° Asphalt 673 ft / 205 m 0 ft / 0 m

EDNY

Details ICAO EDNY (FDH)
Name Friedrichshafen
Region Germany - Civil
Timezone Europe/Berlin (UTC+1.0)
Stats Elevation 1,367 ft / 417 m (AMSL)
Location 47.670891° 9.508175°
Runways 2
Magnetic Variation 2.585° E

METAR

EDNY 111720Z 25005KT 9999 FEW031 OVC042 05/04 Q0988

Decode

TAF

TAF TAF EDNY 111100Z 1112/1212 26008KT 9999 BKN050 PROB30 TEMPO 1112/1114 16015G25KT TEMPO 1119/1201 4000 RADZ BKN010 BECMG 1123/1201 22015G25KT BECMG 1205/1207 23009KT

Decode

Destination Runways

ID Width Length Bearing (true) Bearing (mag) Surface Threshold Offset Overrun Length
06 148 ft / 45 m 7,738 ft / 2,359 m 60.02° 57.43° Asphalt 869 ft / 265 m 0 ft / 0 m
06L 92 ft / 28 m 3,167 ft / 965 m 60.04° 57.45° Grass 0 ft / 0 m 0 ft / 0 m
24 148 ft / 45 m 7,738 ft / 2,359 m 240.04° 237.45° Asphalt 676 ft / 206 m 89 ft / 27 m
24R 92 ft / 28 m 3,167 ft / 965 m 240.04° 237.45° Grass 0 ft / 0 m 0 ft / 0 m

Approach Navaids

Runway Type Ident Frequency Range Bearing (true) Bearing (mag) Slope Elevation
06 Localiser IFHE 111.90 MHz 18 nm / 33 km 60.06° 57.48° - 1,366 ft / 416 m (AMSL)
06 Glidescope IFHE 111.90 MHz 10 nm / 19 km 60.03° 57.44° 3.10° 1,367 ft / 417 m (AMSL)
24 Localiser IFHW 111.90 MHz 18 nm / 33 km 240.03° 237.45° - 1,333 ft / 406 m (AMSL)
24 Glidescope IFHW 111.90 MHz 10 nm / 19 km 240.03° 237.44° 3.00° 1,367 ft / 417 m (AMSL)

Popular Alternatives